Terminal Aerodrome Forecast
Issued by NWS Grand Forks, ND

Home | Current Version | Previous Version | Graphics & Text | Print | Product List | Glossary On
Versions: 1 2 3 4 5 6 7 8 9 10 11 12 13 14 15 16 17 18 19 20 21 22 23
615
FTUS43 KFGF 092326
TAFFAR
TAF
KFAR 092326Z 1000/1024 35009KT P6SM OVC050
     FM100200 VRB06KT P6SM BKN040
     FM101300 VRB05KT P6SM -SN OVC035
      TEMPO 1014/1017 2SM -SN BKN025
     FM101900 11007KT P6SM BKN035=

USA.gov is the U.S. government's official web portal to all federal, state and local government web resources and services.